createdAt,value
2023-05-11T00:00:36.530Z,101550.19
2023-05-11T00:03:03.174Z,101546.41
2023-05-11T00:05:29.682Z,101533.50
2023-05-11T00:07:56.119Z,101541.53
2023-05-11T00:10:22.782Z,101533.50
2023-05-11T00:12:49.340Z,101541.63
2023-05-11T00:15:15.872Z,101547.78
2023-05-11T00:17:42.492Z,101538.69
2023-05-11T00:20:09.478Z,101546.06
2023-05-11T00:22:35.967Z,101535.22
2023-05-11T00:25:02.812Z,101530.03
2023-05-11T00:27:29.265Z,101520.06
2023-05-11T00:29:55.810Z,101516.63
2023-05-11T00:32:22.380Z,101514.22
2023-05-11T00:34:48.907Z,101522.69
2023-05-11T00:37:15.410Z,101534.50
2023-05-11T00:39:41.919Z,101535.34
2023-05-11T00:42:08.396Z,101540.88
2023-05-11T00:44:34.891Z,101535.34
2023-05-11T00:47:01.495Z,101531.91
2023-05-11T00:49:28.278Z,101529.41
2023-05-11T00:51:55.034Z,101530.03
2023-05-11T00:54:21.573Z,101540.88
2023-05-11T00:56:48.369Z,101541.63
2023-05-11T00:59:15.959Z,101538.06
2023-05-11T01:01:43.097Z,101535.34
2023-05-11T01:04:10.001Z,101536.44
2023-05-11T01:07:05.686Z,101528.66
2023-05-11T01:09:35.251Z,101528.97
2023-05-11T01:12:27.463Z,101537.53
2023-05-11T01:15:11.815Z,101536.91
2023-05-11T01:17:52.998Z,101541.44
2023-05-11T01:20:25.525Z,101546.00
2023-05-11T01:23:18.117Z,101546.09
2023-05-11T01:25:51.069Z,101538.06
2023-05-11T01:28:40.941Z,101542.75
2023-05-11T01:31:10.753Z,101536.69
2023-05-11T01:33:43.389Z,101543.16
2023-05-11T01:36:12.668Z,101542.09
2023-05-11T01:38:42.482Z,101540.34
2023-05-11T01:41:14.944Z,101544.03
2023-05-11T01:43:44.226Z,101546.63
2023-05-11T01:46:12.853Z,101538.97
2023-05-11T01:48:42.399Z,101535.59
2023-05-11T01:51:09.622Z,101536.78
2023-05-11T01:53:38.360Z,101545.13
2023-05-11T01:56:06.781Z,101548.16
2023-05-11T01:58:36.878Z,101547.50
2023-05-11T02:01:04.603Z,101545.00
2023-05-11T02:03:33.116Z,101555.91
2023-05-11T02:06:01.848Z,101565.00
2023-05-11T02:08:32.008Z,101551.59
2023-05-11T02:10:59.685Z,101553.44
2023-05-11T02:13:29.953Z,101549.00
2023-05-11T02:15:57.586Z,101558.63
2023-05-11T02:18:24.346Z,101549.56
2023-05-11T02:20:59.510Z,101552.03
2023-05-11T02:23:27.748Z,101552.81
2023-05-11T02:25:55.338Z,101559.16
2023-05-11T02:28:22.196Z,101559.16
2023-05-11T02:30:52.216Z,101562.84
2023-05-11T02:33:24.697Z,101561.03
2023-05-11T02:35:55.001Z,101559.28
2023-05-11T02:38:29.687Z,101560.16
2023-05-11T02:41:00.761Z,101554.75
2023-05-11T02:43:33.369Z,101557.44
2023-05-11T02:46:05.091Z,101556.69
2023-05-11T02:48:42.745Z,101565.78
2023-05-11T02:51:12.350Z,101553.97
2023-05-11T02:53:46.795Z,101556.69
2023-05-11T02:56:13.385Z,101557.66
2023-05-11T02:58:40.013Z,101552.25
2023-05-11T03:01:22.639Z,101550.44
2023-05-11T03:03:49.480Z,101558.53
2023-05-11T03:06:15.982Z,101569.44
2023-05-11T03:08:42.840Z,101567.72
2023-05-11T03:11:11.068Z,101569.44
2023-05-11T03:13:39.049Z,101565.00
2023-05-11T03:16:07.676Z,101563.84
2023-05-11T03:18:36.318Z,101568.06
2023-05-11T03:21:03.297Z,101558.09
2023-05-11T03:23:31.445Z,101556.28
2023-05-11T03:26:00.028Z,101555.28
2023-05-11T03:28:28.019Z,101553.47
2023-05-11T03:31:00.380Z,101544.34
2023-05-11T03:33:27.057Z,101543.28
2023-05-11T03:35:55.082Z,101546.09
2023-05-11T03:38:24.641Z,101536.25
2023-05-11T03:40:53.034Z,101540.03
2023-05-11T03:43:21.734Z,101544.56
2023-05-11T03:45:54.009Z,101541.97
2023-05-11T03:48:22.362Z,101541.00
2023-05-11T03:50:49.642Z,101534.81
2023-05-11T03:53:16.752Z,101537.63
2023-05-11T03:55:43.312Z,101544.13
2023-05-11T03:58:10.799Z,101545.97
2023-05-11T04:00:39.625Z,101544.03
2023-05-11T04:03:06.890Z,101544.78
2023-05-11T04:05:33.550Z,101547.50
2023-05-11T04:08:03.922Z,101544.78
2023-05-11T04:10:30.545Z,101542.94
2023-05-11T04:12:57.097Z,101553.88
2023-05-11T04:15:23.578Z,101552.16
2023-05-11T04:17:50.040Z,101552.03
2023-05-11T04:20:16.704Z,101550.09
2023-05-11T04:22:44.248Z,101550.97
2023-05-11T04:25:11.468Z,101558.09
2023-05-11T04:27:38.001Z,101553.75
2023-05-11T04:30:05.691Z,101561.47
2023-05-11T04:32:32.303Z,101559.31
2023-05-11T04:34:59.298Z,101568.91
2023-05-11T04:37:28.365Z,101566.97
2023-05-11T04:39:54.923Z,101571.34
2023-05-11T04:42:21.467Z,101575.66
2023-05-11T04:44:54.654Z,101566.13
2023-05-11T04:47:22.109Z,101563.19
2023-05-11T04:49:49.092Z,101568.38
2023-05-11T04:52:15.952Z,101568.28
2023-05-11T04:54:45.211Z,101563.75
2023-05-11T04:57:11.866Z,101562.66
2023-05-11T04:59:38.545Z,101565.28
2023-05-11T05:02:05.070Z,101574.47
2023-05-11T05:04:32.557Z,101573.50
2023-05-11T05:07:00.812Z,101575.09
2023-05-11T05:09:27.296Z,101574.69
2023-05-11T05:11:53.817Z,101570.78
2023-05-11T05:14:20.313Z,101578.25
2023-05-11T05:16:46.871Z,101569.69
2023-05-11T05:19:13.402Z,101576.28
2023-05-11T05:21:40.700Z,101580.94
2023-05-11T05:24:11.045Z,101582.63
2023-05-11T05:26:37.781Z,101576.31
2023-05-11T05:29:05.756Z,101571.94
2023-05-11T05:31:32.511Z,101578.81
2023-05-11T05:33:59.414Z,101574.88
2023-05-11T05:36:25.912Z,101590.94
2023-05-11T05:38:52.518Z,101587.94
2023-05-11T05:41:19.237Z,101589.13
2023-05-11T05:43:46.249Z,101592.56
2023-05-11T05:46:13.279Z,101595.56
2023-05-11T05:48:39.974Z,101597.78
2023-05-11T05:51:06.519Z,101596.69
2023-05-11T05:53:33.120Z,101600.25
2023-05-11T05:55:59.557Z,101610.38
2023-05-11T05:58:26.203Z,101607.53
2023-05-11T06:00:52.738Z,101613.94
2023-05-11T06:03:19.396Z,101617.81
2023-05-11T06:05:46.030Z,101620.59
2023-05-11T06:08:12.450Z,101621.25
2023-05-11T06:10:39.570Z,101625.06
2023-05-11T06:13:08.175Z,101622.72
2023-05-11T06:15:35.360Z,101622.59
2023-05-11T06:18:08.832Z,101620.75
2023-05-11T06:20:35.884Z,101621.34
2023-05-11T06:23:04.602Z,101625.22
2023-05-11T06:25:35.713Z,101621.06
2023-05-11T06:28:03.066Z,101626.81
2023-05-11T06:30:31.208Z,101633.94
2023-05-11T06:32:58.657Z,101632.06
2023-05-11T06:35:25.420Z,101631.81
2023-05-11T06:37:52.454Z,101634.59
2023-05-11T06:40:19.320Z,101638.91
2023-05-11T06:42:46.046Z,101635.72
2023-05-11T06:45:12.926Z,101639.13
2023-05-11T06:47:42.281Z,101634.06
2023-05-11T06:50:09.895Z,101638.28
2023-05-11T06:52:37.581Z,101638.44
2023-05-11T06:55:04.481Z,101636.94
2023-05-11T06:57:31.048Z,101637.06
2023-05-11T06:59:58.105Z,101635.59
2023-05-11T07:02:24.888Z,101634.97
2023-05-11T07:04:51.408Z,101635.38
2023-05-11T07:07:17.977Z,101640.31
2023-05-11T07:09:44.502Z,101633.75
2023-05-11T07:12:11.139Z,101628.81
2023-05-11T07:14:38.202Z,101634.47
2023-05-11T07:17:04.670Z,101630.66
2023-05-11T07:19:31.156Z,101634.59
2023-05-11T07:21:58.030Z,101633.59
2023-05-11T07:24:24.514Z,101637.31
2023-05-11T07:26:51.913Z,101634.84
2023-05-11T07:29:19.712Z,101640.16
2023-05-11T07:31:46.482Z,101638.69
2023-05-11T07:34:12.967Z,101643.03
2023-05-11T07:36:39.450Z,101642.50
2023-05-11T07:39:06.048Z,101639.09
2023-05-11T07:41:32.574Z,101642.47
2023-05-11T07:44:00.942Z,101634.44
2023-05-11T07:46:27.612Z,101646.91
2023-05-11T07:49:03.458Z,101643.31
2023-05-11T07:51:40.710Z,101645.03
2023-05-11T07:54:07.251Z,101646.69
2023-05-11T07:56:33.742Z,101642.97
2023-05-11T07:59:00.233Z,101642.22
2023-05-11T08:01:26.885Z,101644.13
2023-05-11T08:03:53.375Z,101643.78
2023-05-11T08:06:19.960Z,101643.16
2023-05-11T08:08:46.508Z,101649.66
2023-05-11T08:11:12.945Z,101647.63
2023-05-11T08:13:39.359Z,101655.34
2023-05-11T08:16:06.630Z,101653.41
2023-05-11T08:18:33.178Z,101647.22
2023-05-11T08:21:00.163Z,101647.81
2023-05-11T08:23:26.664Z,101658.91
2023-05-11T08:25:56.053Z,101650.81
2023-05-11T08:28:22.600Z,101650.50
2023-05-11T08:30:56.619Z,101641.97
2023-05-11T08:35:56.318Z,101646.31
2023-05-11T08:38:22.751Z,101645.59
2023-05-11T08:40:51.138Z,101641.97
2023-05-11T08:43:19.000Z,101642.16
2023-05-11T08:45:49.705Z,101646.31
2023-05-11T08:48:21.098Z,101639.84
2023-05-11T08:50:48.033Z,101642.06
2023-05-11T08:53:14.781Z,101640.88
2023-05-11T08:55:42.898Z,101635.19
2023-05-11T08:58:10.354Z,101637.28
2023-05-11T09:00:37.446Z,101642.59
2023-05-11T09:03:04.815Z,101638.34
2023-05-11T09:05:32.502Z,101628.09
2023-05-11T09:08:05.488Z,101636.25
2023-05-11T09:10:32.512Z,101636.47
2023-05-11T09:12:58.902Z,101629.56
2023-05-11T09:15:25.363Z,101619.06
2023-05-11T09:17:51.790Z,101627.75
2023-05-11T09:20:27.838Z,101625.97
2023-05-11T09:22:55.606Z,101629.88
2023-05-11T09:25:23.455Z,101624.69
2023-05-11T09:27:49.941Z,101626.88
2023-05-11T09:30:22.270Z,101627.63
2023-05-11T09:32:57.563Z,101628.19
2023-05-11T09:35:25.371Z,101621.09
2023-05-11T09:38:10.137Z,101619.19
2023-05-11T09:40:51.579Z,101623.66
2023-05-11T09:43:26.094Z,101624.16
2023-05-11T09:45:57.931Z,101627.38
2023-05-11T09:48:29.542Z,101627.06
2023-05-11T09:51:07.219Z,101630.91
2023-05-11T09:53:39.354Z,101628.94
2023-05-11T09:56:06.184Z,101627.19
2023-05-11T09:58:47.713Z,101631.38
2023-05-11T10:01:15.528Z,101633.56
2023-05-11T10:03:58.179Z,101633.59
2023-05-11T10:06:50.774Z,101638.66
2023-05-11T10:09:19.147Z,101630.06
2023-05-11T10:11:46.565Z,101635.28
2023-05-11T10:14:14.214Z,101621.25
2023-05-11T10:16:46.430Z,101631.59
2023-05-11T10:19:13.799Z,101634.22
2023-05-11T10:21:41.038Z,101637.81
2023-05-11T10:24:08.216Z,101632.03
2023-05-11T10:26:35.054Z,101633.69
2023-05-11T10:29:01.780Z,101641.25
2023-05-11T10:31:29.863Z,101647.19
2023-05-11T10:33:57.258Z,101648.66
2023-05-11T10:36:25.417Z,101655.69
2023-05-11T10:38:51.869Z,101640.03
2023-05-11T10:41:46.658Z,101652.72
2023-05-11T10:44:40.540Z,101652.16
2023-05-11T10:47:28.065Z,101652.53
2023-05-11T10:50:38.077Z,101653.06
2023-05-11T10:53:13.889Z,101662.97
2023-05-11T10:56:01.944Z,101668.81
2023-05-11T10:58:34.075Z,101673.28
2023-05-11T11:01:25.850Z,101684.19
2023-05-11T11:04:00.334Z,101685.03
2023-05-11T11:06:28.370Z,101677.88
2023-05-11T11:08:57.872Z,101675.03
2023-05-11T11:11:42.412Z,101674.41
2023-05-11T11:14:10.316Z,101674.03
2023-05-11T11:16:37.523Z,101670.94
2023-05-11T11:19:36.441Z,101675.63
2023-05-11T11:22:03.512Z,101669.56
2023-05-11T11:24:39.164Z,101666.72
2023-05-11T11:27:07.051Z,101665.38
2023-05-11T11:29:35.636Z,101665.00
2023-05-11T11:32:20.195Z,101657.97
2023-05-11T11:34:48.120Z,101653.28
2023-05-11T11:37:16.502Z,101657.84
2023-05-11T11:39:43.006Z,101653.00
2023-05-11T11:42:11.878Z,101650.41
2023-05-11T11:44:38.757Z,101654.63
2023-05-11T11:47:16.187Z,101658.19
2023-05-11T11:49:45.944Z,101662.53
2023-05-11T11:52:33.598Z,101663.88
2023-05-11T11:55:01.581Z,101677.03
2023-05-11T11:57:33.826Z,101664.88
2023-05-11T12:00:10.920Z,101668.34
2023-05-11T12:02:45.146Z,101667.47
2023-05-11T12:05:23.358Z,101665.34
2023-05-11T12:07:52.842Z,101668.56
2023-05-11T12:10:21.204Z,101669.38
2023-05-11T12:12:49.153Z,101675.78
2023-05-11T12:15:25.353Z,101674.16
2023-05-11T12:17:51.949Z,101668.78
2023-05-11T12:20:19.669Z,101668.00
2023-05-11T12:22:48.889Z,101668.47
2023-05-11T12:25:18.110Z,101664.94
2023-05-11T12:27:58.098Z,101662.19
2023-05-11T12:30:26.770Z,101656.69
2023-05-11T12:32:57.426Z,101653.19
2023-05-11T12:35:29.750Z,101653.22
2023-05-11T12:37:57.901Z,101651.41
2023-05-11T12:40:24.502Z,101656.28
2023-05-11T12:42:52.050Z,101658.25
2023-05-11T12:45:20.475Z,101660.56
2023-05-11T12:47:49.716Z,101660.88
2023-05-11T12:50:16.942Z,101656.03
2023-05-11T12:52:43.832Z,101655.38
2023-05-11T12:55:11.631Z,101656.75
2023-05-11T12:57:40.621Z,101655.84
2023-05-11T13:00:12.845Z,101654.59
2023-05-11T13:02:50.852Z,101649.97
2023-05-11T13:05:21.969Z,101652.31
2023-05-11T13:07:57.650Z,101659.97
2023-05-11T13:10:25.257Z,101660.44
2023-05-11T13:12:52.699Z,101660.31
2023-05-11T13:15:21.778Z,101662.97
2023-05-11T13:17:55.354Z,101654.88
2023-05-11T13:20:26.298Z,101661.97
2023-05-11T13:23:10.647Z,101659.44
2023-05-11T13:25:46.033Z,101663.25
2023-05-11T13:28:18.345Z,101660.31
2023-05-11T13:30:46.119Z,101658.94
2023-05-11T13:33:12.828Z,101664.25
2023-05-11T13:35:40.513Z,101658.31
2023-05-11T13:38:07.906Z,101651.00
2023-05-11T13:40:35.072Z,101655.25
2023-05-11T13:43:01.832Z,101654.88
2023-05-11T13:45:28.546Z,101648.69
2023-05-11T13:47:55.562Z,101651.00
2023-05-11T13:50:23.204Z,101648.81
2023-05-11T13:52:51.526Z,101650.44
2023-05-11T13:55:18.370Z,101646.06
2023-05-11T13:57:45.604Z,101645.03
2023-05-11T14:00:12.766Z,101646.13
2023-05-11T14:02:39.368Z,101641.63
2023-05-11T14:05:06.425Z,101647.06
2023-05-11T14:07:45.681Z,101639.56
2023-05-11T14:10:14.090Z,101649.16
2023-05-11T14:12:41.110Z,101639.50
2023-05-11T14:15:08.265Z,101643.19
2023-05-11T14:17:34.889Z,101648.50
2023-05-11T14:20:01.514Z,101644.72
2023-05-11T14:22:33.308Z,101639.50
2023-05-11T14:24:59.977Z,101632.50
2023-05-11T14:27:26.381Z,101627.22
2023-05-11T14:29:52.898Z,101633.28
2023-05-11T14:32:19.687Z,101635.34
2023-05-11T14:34:46.672Z,101631.03
2023-05-11T14:37:13.687Z,101637.34
2023-05-11T14:39:41.007Z,101630.22
2023-05-11T14:42:07.872Z,101633.19
2023-05-11T14:44:34.472Z,101631.03
2023-05-11T14:47:03.570Z,101632.63
2023-05-11T14:49:30.081Z,101631.47
2023-05-11T14:51:57.646Z,101628.13
2023-05-11T14:54:24.114Z,101634.84
2023-05-11T14:56:53.859Z,101630.50
2023-05-11T14:59:22.070Z,101629.59
2023-05-11T15:01:49.403Z,101635.19
2023-05-11T15:04:19.161Z,101634.47
2023-05-11T15:06:46.182Z,101640.13
2023-05-11T15:09:12.710Z,101628.47
2023-05-11T15:11:39.230Z,101631.19
2023-05-11T15:14:07.008Z,101636.81
2023-05-11T15:16:33.781Z,101633.06
2023-05-11T15:19:00.405Z,101633.50
2023-05-11T15:21:27.824Z,101639.69
2023-05-11T15:23:54.462Z,101636.81
2023-05-11T15:26:22.310Z,101638.56
2023-05-11T15:28:49.022Z,101633.66
2023-05-11T15:31:15.639Z,101639.56
2023-05-11T15:33:42.659Z,101641.00
2023-05-11T15:36:13.799Z,101652.22
2023-05-11T15:38:41.336Z,101654.81
2023-05-11T15:41:07.797Z,101652.91
2023-05-11T15:43:34.963Z,101661.25
2023-05-11T15:46:03.530Z,101662.69
2023-05-11T15:48:30.204Z,101661.81
2023-05-11T15:50:58.882Z,101665.69
2023-05-11T15:53:25.506Z,101656.50
2023-05-11T15:55:55.096Z,101659.66
2023-05-11T15:58:21.786Z,101659.63
2023-05-11T16:00:48.645Z,101666.97
2023-05-11T16:03:15.424Z,101660.94
2023-05-11T16:05:41.914Z,101654.16
2023-05-11T16:08:08.410Z,101650.38
2023-05-11T16:10:34.890Z,101650.50
2023-05-11T16:13:01.301Z,101644.75
2023-05-11T16:15:29.352Z,101649.50
2023-05-11T16:17:55.915Z,101646.31
2023-05-11T16:20:22.436Z,101653.34
2023-05-11T16:22:48.885Z,101653.59
2023-05-11T16:25:16.018Z,101635.22
2023-05-11T16:27:42.622Z,101646.72
2023-05-11T16:30:22.359Z,101648.75
2023-05-11T16:32:54.022Z,101649.75
2023-05-11T16:35:30.839Z,101645.09
2023-05-11T16:37:59.147Z,101644.78
2023-05-11T16:40:26.000Z,101639.16
2023-05-11T16:42:53.599Z,101642.16
2023-05-11T16:45:20.218Z,101652.16
2023-05-11T16:47:47.509Z,101650.91
2023-05-11T16:50:15.758Z,101655.81
2023-05-11T16:52:42.639Z,101653.53
2023-05-11T16:55:10.944Z,101656.03
2023-05-11T16:57:37.626Z,101655.34
2023-05-11T17:00:04.715Z,101651.88
2023-05-11T17:02:31.347Z,101657.69
2023-05-11T17:04:57.837Z,101660.31
2023-05-11T17:07:26.136Z,101660.56
2023-05-11T17:09:56.824Z,101664.53
2023-05-11T17:12:23.995Z,101670.25
2023-05-11T17:14:50.503Z,101676.94
2023-05-11T17:17:17.295Z,101669.06
2023-05-11T17:19:45.260Z,101677.34
2023-05-11T17:22:11.690Z,101679.13
2023-05-11T17:24:38.317Z,101689.81
2023-05-11T17:27:05.008Z,101675.44
2023-05-11T17:29:31.531Z,101676.50
2023-05-11T17:31:58.166Z,101687.50
2023-05-11T17:34:28.287Z,101680.84
2023-05-11T17:36:56.839Z,101690.97
2023-05-11T17:39:23.538Z,101684.91
2023-05-11T17:41:50.026Z,101686.88
2023-05-11T17:44:16.571Z,101678.09
2023-05-11T17:46:43.249Z,101679.47
2023-05-11T17:49:10.230Z,101692.69
2023-05-11T17:51:37.198Z,101685.53
2023-05-11T17:54:03.715Z,101688.25
2023-05-11T17:56:34.002Z,101693.19
2023-05-11T17:59:00.803Z,101689.75
2023-05-11T18:01:27.839Z,101693.06
2023-05-11T18:03:54.481Z,101692.97
2023-05-11T18:06:21.098Z,101685.78
2023-05-11T18:08:48.669Z,101683.19
2023-05-11T18:11:15.354Z,101687.13
2023-05-11T18:13:41.828Z,101696.66
2023-05-11T18:16:08.538Z,101697.41
2023-05-11T18:18:35.990Z,101689.97
2023-05-11T18:21:06.306Z,101687.50
2023-05-11T18:23:33.144Z,101693.31
2023-05-11T18:26:00.009Z,101693.69
2023-05-11T18:28:26.493Z,101687.38
2023-05-11T18:30:54.053Z,101696.63
2023-05-11T18:33:20.558Z,101695.03
2023-05-11T18:35:47.282Z,101702.94
2023-05-11T18:38:14.089Z,101704.28
2023-05-11T18:40:40.585Z,101703.56
2023-05-11T18:43:07.108Z,101700.09
2023-05-11T18:45:34.958Z,101708.69
2023-05-11T18:48:02.505Z,101710.06
2023-05-11T18:50:29.768Z,101715.84
2023-05-11T18:52:57.261Z,101718.16
2023-05-11T18:55:25.312Z,101723.97
2023-05-11T18:57:52.740Z,101728.53
2023-05-11T19:00:20.416Z,101725.16
2023-05-11T19:02:48.223Z,101719.03
2023-05-11T19:05:15.046Z,101724.78
2023-05-11T19:07:41.490Z,101732.53
2023-05-11T19:10:08.489Z,101727.78
2023-05-11T19:12:35.023Z,101734.31
2023-05-11T19:15:01.503Z,101732.81
2023-05-11T19:17:28.589Z,101742.81
2023-05-11T19:19:56.440Z,101741.28
2023-05-11T19:22:24.143Z,101740.44
2023-05-11T19:24:50.572Z,101746.97
2023-05-11T19:27:17.181Z,101750.53
2023-05-11T19:29:44.756Z,101742.63
2023-05-11T19:32:11.436Z,101746.19
2023-05-11T19:34:38.025Z,101748.06
2023-05-11T19:37:04.554Z,101750.78
2023-05-11T19:39:31.192Z,101755.22
2023-05-11T19:41:57.616Z,101757.19
2023-05-11T19:44:24.329Z,101761.75
2023-05-11T19:46:50.783Z,101761.66
2023-05-11T19:49:17.553Z,101777.41
2023-05-11T19:51:44.166Z,101779.34
2023-05-11T19:54:11.402Z,101775.00
2023-05-11T19:56:38.344Z,101775.25
2023-05-11T19:59:04.966Z,101784.25
2023-05-11T20:01:31.659Z,101784.63
2023-05-11T20:03:58.644Z,101793.94
2023-05-11T20:06:25.639Z,101789.81
2023-05-11T20:08:52.876Z,101791.69
2023-05-11T20:11:19.736Z,101793.66
2023-05-11T20:13:47.726Z,101793.66
2023-05-11T20:16:14.793Z,101791.91
2023-05-11T20:18:42.988Z,101801.25
2023-05-11T20:21:09.546Z,101795.06
2023-05-11T20:23:37.620Z,101802.44
2023-05-11T20:26:04.630Z,101800.72
2023-05-11T20:28:31.209Z,101800.84
2023-05-11T20:30:57.673Z,101803.97
2023-05-11T20:35:53.743Z,101795.09
2023-05-11T20:38:20.438Z,101797.72
2023-05-11T20:40:46.847Z,101799.03
2023-05-11T20:43:15.201Z,101802.91
2023-05-11T20:45:42.351Z,101798.47
2023-05-11T20:48:09.188Z,101803.91
2023-05-11T20:50:35.857Z,101802.25
2023-05-11T20:53:02.431Z,101803.13
2023-05-11T20:55:28.980Z,101802.25
2023-05-11T20:57:55.498Z,101799.47
2023-05-11T21:00:22.790Z,101796.84
2023-05-11T21:02:49.870Z,101796.84
2023-05-11T21:05:16.640Z,101797.59
2023-05-11T21:07:43.111Z,101798.59
2023-05-11T21:10:11.550Z,101803.03
2023-05-11T21:12:37.973Z,101805.09
2023-05-11T21:15:05.006Z,101806.06
2023-05-11T21:17:31.480Z,101804.97
2023-05-11T21:19:57.957Z,101797.59
2023-05-11T21:22:24.451Z,101796.94
2023-05-11T21:24:50.890Z,101798.94
2023-05-11T21:27:17.369Z,101797.28
2023-05-11T21:29:43.904Z,101800.97
2023-05-11T21:32:11.767Z,101799.44
2023-05-11T21:34:38.492Z,101813.00
2023-05-11T21:37:05.018Z,101806.13
2023-05-11T21:39:31.645Z,101805.28
2023-05-11T21:41:58.182Z,101810.81
2023-05-11T21:44:24.772Z,101803.97
2023-05-11T21:46:51.319Z,101809.50
2023-05-11T21:49:17.784Z,101810.56
2023-05-11T21:51:44.322Z,101809.72
2023-05-11T21:54:10.852Z,101816.19
2023-05-11T21:56:37.380Z,101807.19
2023-05-11T21:59:03.823Z,101808.94
2023-05-11T22:01:30.543Z,101823.25
2023-05-11T22:03:57.234Z,101812.53
2023-05-11T22:06:23.775Z,101816.19
2023-05-11T22:08:50.572Z,101817.06
2023-05-11T22:11:17.215Z,101819.00
2023-05-11T22:13:44.508Z,101811.75
2023-05-11T22:16:11.056Z,101811.09
2023-05-11T22:18:37.576Z,101817.69
2023-05-11T22:21:04.376Z,101817.69
2023-05-11T22:23:32.289Z,101806.09
2023-05-11T22:25:58.787Z,101808.63
2023-05-11T22:28:25.243Z,101808.91
2023-05-11T22:30:51.702Z,101811.72
2023-05-11T22:33:18.121Z,101807.50
2023-05-11T22:35:44.519Z,101806.94
2023-05-11T22:38:11.241Z,101813.53
2023-05-11T22:40:37.744Z,101806.69
2023-05-11T22:43:04.236Z,101807.56
2023-05-11T22:45:30.829Z,101808.44
2023-05-11T22:47:57.321Z,101799.34
2023-05-11T22:50:23.845Z,101812.09
2023-05-11T22:52:50.382Z,101808.84
2023-05-11T22:55:16.915Z,101808.84
2023-05-11T22:57:43.886Z,101809.16
2023-05-11T23:00:11.000Z,101810.16
2023-05-11T23:02:38.009Z,101814.69
2023-05-11T23:05:04.955Z,101809.47
2023-05-11T23:07:31.609Z,101809.59
2023-05-11T23:09:58.208Z,101806.22
2023-05-11T23:12:24.770Z,101810.84
2023-05-11T23:14:51.303Z,101809.72
2023-05-11T23:17:18.008Z,101808.13
2023-05-11T23:19:44.459Z,101808.19
2023-05-11T23:22:10.930Z,101810.34
2023-05-11T23:24:37.419Z,101808.81
2023-05-11T23:27:04.261Z,101807.16
2023-05-11T23:29:32.616Z,101807.59
2023-05-11T23:31:59.053Z,101819.38
2023-05-11T23:34:27.052Z,101807.88
2023-05-11T23:36:53.738Z,101807.78
2023-05-11T23:39:21.406Z,101814.47
2023-05-11T23:41:47.968Z,101810.03
2023-05-11T23:44:14.757Z,101811.19
2023-05-11T23:46:41.251Z,101812.28
2023-05-11T23:49:07.672Z,101811.38
2023-05-11T23:51:34.178Z,101810.19
2023-05-11T23:54:00.799Z,101810.31
2023-05-11T23:56:27.346Z,101805.31
2023-05-11T23:58:54.311Z,101803.59
